SBME

Macaé Airport

Macaé, Brazil
TAF SBME 220815Z 2212/2224 04005KT CAVOK TX36/2214Z TN27/2224Z BECMG 2213/2215 10015KT FEW030 BECMG 2218/2220 FEW030TCU PROB30 2221/2224 06015KT TS SCT020 FEW030CB RMK PGS
Issued Valid From Valid To
Jan-22 @ 08:15 UTC
(10 hours ago)
Jan-22 @ 12:00 UTC
(6 hours ago)
Jan-23 @ 00:00 UTC
(in 6 hours)
Expired Click to View Jan-22 @ 12:00 to Jan-22 @ 13:00
TAF SBME 220815Z 2212/2224 04005KT CAVOK TX36/2214Z TN27/2224Z
Wind Visibility Clouds
40° at 5 knots 10,000+ meters
  • No significant clouds
Becoming Jan-22 @ 13:00 to Jan-22 @ 18:00
BECMG 2213/2215 10015KT FEW030
Wind Visibility Clouds
100° at 15 knots 10,000+ meters
  • Few at 3,000' AGL
Becoming Jan-22 @ 18:00 to Jan-23 @ 00:00
BECMG 2218/2220 FEW030TCU
Wind Visibility Clouds
100° at 15 knots 10,000+ meters
  • Few at 3,000' AGL
Probable  (Probability 30%) Jan-22 @ 21:00 to Jan-23 @ 00:00
PROB30 2221/2224 06015KT TS SCT020 FEW030CB RMK PGS
Wind Clouds Conditions
60° at 15 knots
  • Scattered at 2,000' AGL
  • Few at 3,000' AGL
  • Thunderstorm
TAF SBME 220815Z 2212/2224 04005KT CAVOK TX36/2214Z TN27/2224Z BECMG 2213/2215 10015KT FEW030 BECMG 2218/2220 FEW030TCU PROB30 2221/2224 06015KT TS SCT020 FEW030CB RMK PGS
Issued Jan-22 @ 08:15 UTC
(10 hours ago)
Valid From Jan-22 @ 12:00 UTC
(6 hours ago)
Valid To Jan-23 @ 00:00 UTC
(in 6 hours)
Jan-22 @ 12:00 - Jan-22 @ 13:00
Wind Visibility
40° at 5 knots 10,000+ meters
Clouds
  • No significant clouds
Becoming Jan-22 @ 13:00 - Jan-22 @ 18:00
Wind Visibility
100° at 15 knots 10,000+ meters
Clouds
  • Few at 3,000' AGL
Becoming Jan-22 @ 18:00 - Jan-23 @ 00:00
Wind Visibility
100° at 15 knots 10,000+ meters
Clouds
  • Few at 3,000' AGL
Probability 30% Probable Jan-22 @ 21:00 - Jan-23 @ 00:00
Wind
60° at 15 knots
Clouds
  • Scattered at 2,000' AGL
  • Few at 3,000' AGL
Conditions
  • Thunderstorm